Airfield :
LOGIN :

Register | Disclaimer

   EN    FR    IT 

 










Legend :    VFR   Marginal VFR   IFR   Intensive IFR   Very Intensive IFR
Visi :
Ceiling :
>= 8 km
>= 3000ft
5 to 8 km
1000 to 3000 ft
1500m to 5 km
500 to 1000 ft
800 to 1500m
200 to 500 ft
< 800m
< 200 ft
Symbols :   Thunderstorms  Fog  Heavy snow  Heavy precipitations  Wind > 20 kt
SIGMETs :     Misc.  Thunderstorms  Icing  Turbulence  Mountain Waves  Volcanic Ashes






- Airport Elevation : 468 ft
- IATA code : GRO


LEGE - Girona Costa Brava

CURRENT METAR :
  • 270300Z 00000KT 0500 R20/0325N FG BKN001 04/04 Q1021

EXPIRED METARs :
  • 270230Z 00000KT 1000 0200 R20/0400D BR BCFG SCT001 04/04 Q1021
  • 270200Z 00000KT 1000 0200 R20/0700N BR BCFG BKN001 04/04 Q1021
  • 270130Z 00000KT 3000 0500 R20/1300U BR BCFG SCT001 04/04 Q1021
  • 270100Z VRB01KT 3000 0500 BR BCFG NSC 04/04 Q1021
  • 270030Z VRB01KT 5000 0500 BCFG NSC 05/05 Q1022

TAF TAF LEGE
Valid from the 27 at 00:00 until the 28 at 00:00 UTC


262300Z 2700/2724 VRB03KT 9999 FEW040 TX16/2713Z TN04/2706Z
PROB40
TEMPO 2700/2710 4000 BR BKN014
PROB30
TEMPO 2700/2709 0500 BCFG VV002
BECMG 2710/2712 20010KT
BECMG 2716/2718 VRB03KT
PROB40
TEMPO 2718/2724 4000 BR BKN014



MET'MAP, your aeronautical weather chart ! - Copyright ORBIFLY December 2007 - Disclaimer

ORBIFLY MET'MAP TEAM :

Programming & Development : Alexandra Zaïnal
Concept & original design : Baudouin d'Aumeries
Assistance for programming : Marc-Olivier Méhu
Technical & hardware support : Manuel Goepfert

Contact : metmap@orbifly.com




SOURCES & CREDITS :

   NOAA